Latest METARs, TAFs and NOTAMs for LIMF


---------------------------------------------------------------------------
	(OBSERVATIONS)
LIMF 230350Z 33004KT CAVOK 17/12 Q1017=
LIMF 230320Z 33004KT CAVOK 17/12 Q1017=
LIMF 230250Z 33004KT CAVOK 18/12 Q1017=
LIMF 230220Z 34004KT CAVOK 18/12 Q1017=
LIMF 230150Z 35004KT 320V030 CAVOK 17/12 Q1017=
LIMF 230120Z 01003KT 330V030 CAVOK 17/13 Q1017=
---------------------------------------------------------------------------
	(FC)
Sorry, FC For LIMF Not Found
---------------------------------------------------------------------------
	(TERMINAL AREA FORECAST)
LIMF 222300Z 2300/2324 VRB05KT 9999 SCT060=
---------------------------------------------------------------------------
	(NOTAMS)


LIMF A2652/17 REF AIP AD 2 LIMF 1-1 ITEM 3 'OPERATIONAL HOURS'
    BOX 8 'FUELLING' REFERRING TO CARBOIL SRL OPR HR TO READ:
    HR 0500-2100 (0400-2000) INSTEAD OF 0500-2200 (0400-2100)
    OTHER DATA UNCHANGED. 01 MAY 05:00 2017 UNTIL PERM. CREATED:
    28 APR 15:03 2017

LIMF A2804/17 REF AIP AD 2 LIMF 1-9 ITEM 19 'RADIO NAVIGATION
    AND LANDING AIDS' REFERRING TO VOR/DME 'TOP' FREQ 114.50MHZ
    CH 92X COLUMN 5 'ANTENNA SITE COORDINATES (WGS84)' CHANGE
    DME COORD TO READ: DME 445531.0N 0075141.9E COLUMN 7 'DESIGNATED
    OPERATIONAL COVERAGE LIMITATION' MODIFY LIMITATIONS TO READ:
    SECTOR 015DEG/100DEG AT 40NM MRA 4000FT SECTOR 100DEG/160DEG
    AT 40NM MRA 6000FT SECTOR 160DEG/230DEG AT 40NM MRA 10000FT
    SECTOR 230DEG/340DEG AT 40NM MRA 15000FT SECTOR 340DEG/015DEG
    AT 40NM MRA 10000FT. 05 MAY 14:56 2017 UNTIL PERM. CREATED:
    05 MAY 14:57 2017

LIMF A3299/17 REF AIP AD 2 LIMF 2-11 'AIRCRAFT PARKING DOCKING
    REMARKS' BOX 2 CHANGE RMK TO READ: -STANDS 100-105 AND 601-604:
    SELF MANOEUVRING OPS ARE PERMITTED WITH MAX WING SPAN 24M
    AND GROUND TAXIING HELICOPTERS WITH AN OVERALL WIDTH UP TO
    17M -ACCORDING TO THE APRON LAYOUT PUSHING BACK OPS FROM
    STANDS 100-107 COULD BE DELAYED DUE TO JET-BLAST INTERACTION
    WITH START UP OPS ON STANDS 500-507 -CROSS BLEED OPERATIONS
    ARE ALLOWED ONLY ON ENGINE START POINTS OF TAXIWAYS AFTER
    PUSHING/TOWING FROM ANY STAND. -FOR SAFETY REASONS START-UP
    AT PARKING POSITIONS AND TAXIING OPERATIONS MUST BE PERFORMED
    AT MINIMUM ENGINE THRUST. IN ORDER TO AVOID JET-BLAST, POWER-OUT
    OPERATIONS FROM SELF MANOEUVRING STANDS MUST BE PERFORMED
    USING ALL ENGINES AT MINIMUM THRUST. 25 MAY 09:42 2017 UNTIL
    PERM. CREATED: 25 MAY 09:42 2017

LIMF A3375/17 REF AIP AD 2 LIMF 1-14 ITEM 22 'FLIGHT PROCEDURES'
    BOX 2 'PROCEDURES FOR IFR FLIGHTS' POINT 2.3 'DEPARTURES'
    SUB POINT 2 'START-UP PROCEDURES' CHANGE TO READ: GROUND
    STAFF TO WATCH OVER ENGINE START-UP IS MANDATORY. FOR SAFETY
    REASONS START-UP AT PARKING POSITIONS AND TAXIING OPERATIONS
    MUST BE PERFORMED AT MINIMUM ENGINE THRUST. AT PUSH-BACK
    OUT STANDS THE FOLLOWING RULES APPLY FOR ENGINE START-UP:
    A)ONE ENGINE ONLY CAN BE STARTED DURING PUSH-BACK OPERATION
    OR AT PARKING POSITION B) ALL OTHER ENGINES MUST BE STARTED
    ONLY AFTER REACHING THE ENGINE START POINT ASSIGNED. AT SELF-MANOEUVRING
    STANDS IN ORDER TO AVOID JET BLAST,POWER-OUT OPERATIONS MUST
    BE PERFORMED USING ALL ENGINES AT MINIMUM THRUST. CROSS-BLEED
    OPERATIONS ARE ALLOWED ONLY ON ENGINE START POINTS OF TAXIWAYS
    AFTER PUSHING/TOWING FROM ANY STAND. 26 MAY 08:07 2017 UNTIL
    PERM. CREATED: 26 MAY 08:07 2017

LIMF A3812/17 BIELLA VOR/DME 'BLA' FREQ 116.10MHZ CH 108X AVBL
    AS FLW: - VOR RDL 312DEG NOT USABLE - DME OPR REF AIP AD
    2 LIMF 1-8. 13 JUN 08:18 2017 UNTIL 06 SEP 23:59 2017 ESTIMATED.
    CREATED: 13 JUN 08:18 2017

LIMF A4086/17 GENOVA NDB 'GEN' FREQ 318.00KHZ UNSERVICEABLE REF
    AIP AD 2 LIMF 1-8. 22 JUN 10:54 2017 UNTIL 18 SEP 23:59 2017
    ESTIMATED. CREATED: 22 JUN 10:54 2017

LIMF A4204/17 REF AIP AD 2 LIMF 2-9 AIRCRAFT PARKING DOCKING
    CHART ICAO KILO APRON STANDARD ENGINE START POINT K1 IMPLEMENTED
    AND ASSOCIATED TO ACFT STANDS 601, 602, 603, 604, 700, 701,
    702 AND 800 RMK: ENGINE START POINT DIFFERENT FROM STANDARD
    CAN BE ASSIGNED BY ATC FOR PUSH-BACK AND TOWING OPERATIONS.
    03 JUL 00:00 2017 UNTIL PERM. CREATED: 26 JUN 10:31 2017

LIMF A4210/17 REF AIP AD 2 LIMF 2-7 'AIRCRAFT PARKING DOCKING
    CHART ICAO - MAIN AND GENERAL AVIATION APRONS' STANDARD ENGINE
    START POINTS IMPLEMENTED AND TO BE ASSOCIATED TO ACFT STANDS
    IN TABLES POINTS ON PARKING AREA ACCORDING TO FLW DETAILS:
    ACFT STANDS 100 AND 101: STANDARD ENGINE START POINT M1,
    ACFT STANDS 102 AND 103: STANDARD ENGINE START POINT M2,
    ACFT STANDS 104 AND 105: STANDARD ENGINE START POINT M3,
    ACFT STANDS 106 AND 107: STANDARD ENGINE START POINT M4,
    ACFT STAND 108, 506 AND 507: STANDARD ENGINE START POINT
    L3, ACFT STANDS 109 AND 110: STANDARD ENGINE START POINT
    L4, ACFT STANDS 111: STANDARD ENGINE START POINT L5, ACFT
    STANDS 112 AND 113: STANDARD ENGINE START POINT L6, ACFT
    STAND 201: STANDARD ENGINE START POINT L7, ACFT STANDS 114,
    115 AND 202: STANDARD ENGINE START POINT L8, ACFT STANDS
    116, 117 AND 203: STANDARD ENGINE START POINT L9 ACFT STANDS
    118 AND 204: STANDARD ENGINE START POINT L10, ACFT STANDS
    302, 303, 304, 305, 306 AND 307: STANDARD ENGINE START POINT
    N1, ACFT STANDS 308, 309, 310 AND 311: STANDARD ENGINE START
    POINT N2, ACFT STANDS 500, 501, 502 AND 503: STANDARD ENGINE
    START POINT L1, ACFT STANDS 504 AND 505: STANDARD ENGINE
    START POINT L2. RMK: ENGINE START POINT DIFFERENT FROM STANDARD
    CAN BE ASSIGNED BY ATC FOR PUSH-BACK AND TOWING OPERATION.
    03 JUL 00:00 2017 UNTIL PERM. CREATED: 26 JUN 11:20 2017

LIMF A4716/17 RWY GUARD LGT RIGHT SIDE TWY 'C' NOT AVBL DUE TO
    TECR. REF AIP AD 2 LIMF 2-1. 13 JUL 09:43 2017 UNTIL 13 SEP
    23:59 2017 ESTIMATED. CREATED: 13 JUL 09:43 2017

LIMF A5049/17 REF AIP AD 2 LIMF 1-9 ITEM 20 'LOCAL TRAFFIC REGULATIONS'
    BOX 3 'SPECIAL RULES FOR TAXIWAY USE' POINT 4 CHANGE TO READ:
    WHEN LANDING OPERATIONS ON RWY 36 ARE IN PROGRESS, THE USE
    OF RUNWAY HOLDING POSITION ON TWY 'F' IS FORBIDDEN AND AIRCRAFT
    CODE 'E' AND 'F' TAXIING TOWARD TWY 'G' SHALL HOLD NOT BEYOND
    INTERMEDIATE HOLDING POSITION 'G1'. 27 JUL 09:36 2017 UNTIL
    PERM. CREATED: 27 JUL 09:36 2017

LIMF A5280/17 REF AIP AD 2 LIMF 1-8 TABLE 19 'RADIO NAVIGATION
    AND LANDING AIDS' GENOVA VOR/DME 'GEN' FREQ 112.80MHZ CH
    75X COLUMN 5 'ANTENNA SITE COORDINATES (WGS84)' CHANGE TO
    READ: VOR 442528.0N 0090456.4E DME 442528.0N 0090457.2E COLUMN
    6 'ELEVATION OF DME ANTENNA' CHANGE TO READ: 893M AMSL. 09
    AUG 09:01 2017 UNTIL PERM. CREATED: 08 AUG 13:05 2017

LIMF M0944/17 REF FLIP 'CENTRAL AN NORTHERN ITALY' AD LIMF 1-1
    'LANDING CHART' BOX 'DECLARED DISTANCES' NEW INT TAKE-OFF
    C IMPLEMENTED WITH FLW CHARACTERISTICS: INT TAKE-OFF C RWY18
    TORA 1670M 5479FT TODA 2120M 6955FT ASDA 1670M 5479FT INT
    TAKE-OFF C RWY36 TORA 1457M 4780FT TODA 1757M 5764FT ASDA
    1457M 4780FT. 02 MAR 09:08 2017 UNTIL PERM. CREATED: 02 MAR
    09:08 2017

LIMF V0243/17 [US DOD PROCEDURAL NOTAM] STANDARD INSTRUMENT DEPARTURE
    (SID) CHANGED BOA 5S DEPARTURE NOW BOA 5M DEPARTURE. BOA
    5U DEPARTURE NOW BOA 5E DEPARTURE. 16 AUG 09:21 2017 UNTIL
    14 SEP 23:59 2017. CREATED: 16 AUG 09:21 2017

LIMF V0244/17 [US DOD PROCEDURAL NOTAM] STANDARD INSTRUMENT DEPARTURE
    (SID) NOT AUTHORIZED RWY 13/31 SIDS NOT AUTHORIZED DUE TO
    HOST SOURCE CHANGE NOT YET IMPLEMENTED. 16 AUG 09:23 2017
    UNTIL 14 SEP 23:59 2017. CREATED: 16 AUG 09:23 2017

LIMF V0245/17 [US DOD PROCEDURAL NOTAM] STANDARD INSTRUMENT DEPARTURE
    (SID) CHANGED RWY 18/36 SIDS SIRLO 8A DEPARTURE NOW SIRLO
    9A DEPARTURE. TOP 8A DEPARTURE NOW TOP 9A DEPARTURE. MCA
    CSL VOR R-002/2 DME (CAS 3.5 DME) 2000FT. 16 AUG 09:30 2017
    UNTIL 14 SEP 23:59 2017. CREATED: 16 AUG 09:30 2017

---------------------------------------------------------------------------